createdAt,value
2022-10-01T00:01:08.992Z,9.90
2022-10-01T00:03:37.071Z,10.40
2022-10-01T00:06:06.641Z,10.00
2022-10-01T00:08:33.930Z,9.30
2022-10-01T00:11:01.617Z,9.63
2022-10-01T00:13:30.357Z,10.43
2022-10-01T00:15:57.414Z,9.70
2022-10-01T00:18:24.201Z,9.95
2022-10-01T00:20:50.939Z,10.65
2022-10-01T00:23:19.209Z,10.15
2022-10-01T00:25:45.950Z,9.85
2022-10-01T00:28:12.696Z,10.43
2022-10-01T00:30:46.850Z,10.82
2022-10-01T00:33:13.785Z,10.38
2022-10-01T00:35:40.574Z,10.52
2022-10-01T00:38:07.275Z,10.77
2022-10-01T00:40:34.505Z,10.30
2022-10-01T00:43:01.278Z,10.70
2022-10-01T00:45:28.507Z,10.45
2022-10-01T00:47:59.014Z,10.98
2022-10-01T00:50:34.855Z,11.13
2022-10-01T00:53:06.295Z,10.38
2022-10-01T00:55:37.005Z,11.35
2022-10-01T00:58:08.979Z,11.43
2022-10-01T01:00:36.587Z,11.23
2022-10-01T01:03:04.962Z,11.35
2022-10-01T01:05:32.555Z,10.80
2022-10-01T01:08:01.565Z,11.13
2022-10-01T01:10:57.854Z,11.40
2022-10-01T01:13:35.806Z,11.65
2022-10-01T01:16:12.645Z,11.10
2022-10-01T01:19:12.743Z,11.07
2022-10-01T01:21:44.682Z,11.20
2022-10-01T01:24:35.861Z,10.98
2022-10-01T01:29:55.425Z,10.68
2022-10-01T01:32:28.368Z,12.40
2022-10-01T01:35:02.437Z,11.85
2022-10-01T01:37:34.058Z,12.25
2022-10-01T01:40:10.099Z,10.65
2022-10-01T01:42:39.719Z,10.43
2022-10-01T01:45:10.510Z,10.52
2022-10-01T01:47:41.230Z,11.13
2022-10-01T01:50:10.847Z,10.40
2022-10-01T01:52:38.362Z,10.23
2022-10-01T01:55:08.641Z,11.73
2022-10-01T01:57:43.998Z,9.93
2022-10-01T02:00:12.664Z,10.52
2022-10-01T02:02:43.364Z,9.75
2022-10-01T02:05:13.904Z,9.75
2022-10-01T02:08:01.779Z,10.73
2022-10-01T02:11:16.238Z,10.32
2022-10-01T02:14:03.337Z,10.10
2022-10-01T02:16:45.562Z,10.02
2022-10-01T02:19:45.717Z,11.75
2022-10-01T02:22:22.719Z,10.60
2022-10-01T02:24:57.035Z,10.32
2022-10-01T02:27:28.984Z,10.18
2022-10-01T02:29:59.441Z,10.05
2022-10-01T02:32:30.149Z,9.93
2022-10-01T02:34:57.857Z,10.40
2022-10-01T02:37:27.554Z,10.60
2022-10-01T02:39:57.847Z,10.82
2022-10-01T02:42:31.231Z,9.80
2022-10-01T02:45:03.406Z,10.00
2022-10-01T02:47:44.878Z,10.52
2022-10-01T02:50:13.254Z,10.38
2022-10-01T02:52:55.277Z,10.30
2022-10-01T02:55:41.687Z,9.88
2022-10-01T02:58:10.804Z,9.85
2022-10-01T03:00:52.860Z,10.48
2022-10-01T03:03:19.917Z,9.77
2022-10-01T03:05:50.730Z,9.82
2022-10-01T03:08:26.837Z,10.07
2022-10-01T03:10:57.236Z,10.60
2022-10-01T03:13:31.314Z,10.38
2022-10-01T03:16:04.101Z,10.95
2022-10-01T03:18:37.952Z,10.60
2022-10-01T03:21:09.041Z,9.73
2022-10-01T03:23:38.296Z,9.95
2022-10-01T03:26:11.145Z,10.32
2022-10-01T03:28:41.104Z,10.20
2022-10-01T03:31:13.395Z,10.52
2022-10-01T03:33:41.433Z,9.82
2022-10-01T03:36:08.940Z,10.77
2022-10-01T03:38:38.160Z,10.23
2022-10-01T03:41:08.462Z,9.85
2022-10-01T03:43:37.009Z,10.65
2022-10-01T03:46:14.544Z,9.52
2022-10-01T03:48:43.242Z,10.60
2022-10-01T03:51:19.967Z,9.93
2022-10-01T03:53:50.163Z,9.73
2022-10-01T03:56:19.212Z,10.70
2022-10-01T03:58:47.730Z,10.07
2022-10-01T04:01:23.224Z,9.98
2022-10-01T04:03:50.641Z,9.55
2022-10-01T04:06:18.130Z,8.95
2022-10-01T04:08:46.805Z,8.85
2022-10-01T04:11:15.684Z,8.73
2022-10-01T04:13:43.453Z,8.30
2022-10-01T04:16:16.122Z,8.30
2022-10-01T04:18:44.501Z,8.60
2022-10-01T04:21:17.250Z,7.82
2022-10-01T04:23:47.050Z,7.45
2022-10-01T04:26:14.723Z,8.23
2022-10-01T04:28:45.506Z,7.47
2022-10-01T04:31:27.934Z,7.63
2022-10-01T04:33:57.154Z,7.25
2022-10-01T04:36:27.822Z,7.03
2022-10-01T04:39:01.677Z,6.75
2022-10-01T04:41:36.463Z,6.97
2022-10-01T04:44:04.245Z,6.80
2022-10-01T04:46:46.588Z,8.45
2022-10-01T04:49:15.121Z,6.85
2022-10-01T04:51:45.310Z,6.90
2022-10-01T04:54:12.781Z,6.60
2022-10-01T04:56:41.647Z,6.57
2022-10-01T04:59:09.276Z,6.00
2022-10-01T05:01:36.453Z,6.40
2022-10-01T05:04:03.897Z,6.40
2022-10-01T05:06:30.661Z,5.80
2022-10-01T05:08:57.357Z,6.18
2022-10-01T05:11:24.058Z,5.80
2022-10-01T05:13:50.921Z,6.00
2022-10-01T05:16:17.707Z,6.05
2022-10-01T05:18:44.778Z,5.63
2022-10-01T05:21:11.770Z,6.15
2022-10-01T05:23:38.790Z,6.13
2022-10-01T05:26:05.908Z,6.10
2022-10-01T05:28:33.266Z,6.47
2022-10-01T05:31:01.374Z,5.80
2022-10-01T05:33:29.822Z,6.05
2022-10-01T05:35:57.934Z,6.30
2022-10-01T05:38:25.054Z,6.15
2022-10-01T05:40:51.929Z,6.68
2022-10-01T05:43:18.751Z,7.32
2022-10-01T05:45:45.494Z,5.78
2022-10-01T05:48:12.833Z,6.97
2022-10-01T05:50:40.838Z,6.68
2022-10-01T05:53:10.215Z,6.20
2022-10-01T05:55:37.411Z,5.70
2022-10-01T05:58:06.987Z,5.95
2022-10-01T06:00:35.151Z,5.60
2022-10-01T06:03:03.480Z,5.45
2022-10-01T06:05:32.111Z,6.00
2022-10-01T06:07:59.406Z,6.10
2022-10-01T06:10:28.223Z,5.85
2022-10-01T06:13:01.021Z,5.85
2022-10-01T06:15:28.820Z,5.75
2022-10-01T06:17:55.518Z,5.93
2022-10-01T06:20:22.224Z,5.70
2022-10-01T06:22:56.888Z,5.50
2022-10-01T06:25:24.713Z,6.70
2022-10-01T06:27:58.230Z,6.20
2022-10-01T06:30:32.498Z,5.63
2022-10-01T06:33:08.329Z,5.40
2022-10-01T06:35:39.425Z,5.35
2022-10-01T06:38:06.616Z,5.57
2022-10-01T06:40:33.287Z,5.70
2022-10-01T06:43:00.004Z,6.18
2022-10-01T06:45:28.787Z,5.50
2022-10-01T06:48:03.027Z,6.00
2022-10-01T06:50:33.863Z,5.70
2022-10-01T06:53:01.320Z,6.88
2022-10-01T06:55:31.100Z,5.35
2022-10-01T06:58:02.950Z,5.55
2022-10-01T07:00:32.013Z,5.55
2022-10-01T07:02:59.592Z,5.80
2022-10-01T07:05:27.519Z,5.30
2022-10-01T07:07:54.611Z,5.80
2022-10-01T07:10:23.068Z,5.47
2022-10-01T07:12:52.646Z,5.90
2022-10-01T07:15:22.732Z,5.55
2022-10-01T07:17:50.683Z,6.20
2022-10-01T07:20:19.851Z,6.18
2022-10-01T07:22:48.333Z,5.90
2022-10-01T07:25:15.564Z,6.72
2022-10-01T07:27:45.100Z,6.50
2022-10-01T07:30:12.033Z,6.95
2022-10-01T07:32:38.702Z,7.30
2022-10-01T07:35:05.967Z,6.70
2022-10-01T07:37:32.785Z,6.88
2022-10-01T07:40:01.992Z,6.40
2022-10-01T07:42:31.350Z,7.13
2022-10-01T07:44:58.064Z,6.15
2022-10-01T07:47:24.821Z,6.78
2022-10-01T07:49:51.556Z,6.32
2022-10-01T07:52:18.256Z,7.05
2022-10-01T07:54:45.021Z,6.25
2022-10-01T07:57:11.813Z,6.05
2022-10-01T07:59:40.383Z,6.25
2022-10-01T08:02:18.974Z,5.95
2022-10-01T08:05:04.293Z,5.63
2022-10-01T08:07:33.124Z,5.88
2022-10-01T08:09:59.830Z,5.45
2022-10-01T08:12:28.835Z,5.80
2022-10-01T08:14:56.020Z,5.70
2022-10-01T08:17:27.269Z,5.47
2022-10-01T08:19:56.006Z,5.70
2022-10-01T08:22:22.735Z,5.63
2022-10-01T08:24:49.425Z,10.00
2022-10-01T08:27:16.150Z,5.70
2022-10-01T08:29:46.022Z,5.70
2022-10-01T08:32:12.821Z,5.60
2022-10-01T08:34:39.598Z,5.47
2022-10-01T08:37:06.362Z,5.60
2022-10-01T08:39:33.144Z,5.00
2022-10-01T08:41:59.759Z,5.70
2022-10-01T08:44:32.792Z,5.65
2022-10-01T08:47:06.574Z,5.40
2022-10-01T08:49:51.386Z,5.35
2022-10-01T08:52:25.941Z,5.30
2022-10-01T08:55:01.936Z,5.15
2022-10-01T08:57:34.614Z,5.78
2022-10-01T09:00:07.826Z,5.45
2022-10-01T09:02:39.307Z,5.65
2022-10-01T09:05:07.595Z,5.85
2022-10-01T09:07:40.205Z,5.95
2022-10-01T09:10:19.807Z,6.53
2022-10-01T09:13:19.659Z,6.72
2022-10-01T09:15:57.812Z,5.78
2022-10-01T09:18:53.528Z,5.60
2022-10-01T09:21:28.114Z,5.50
2022-10-01T09:24:12.783Z,6.20
2022-10-01T09:26:45.952Z,5.65
2022-10-01T09:29:41.648Z,5.85
2022-10-01T09:32:13.669Z,9.88
2022-10-01T09:34:43.976Z,5.88
2022-10-01T09:37:57.242Z,7.53
2022-10-01T09:40:34.970Z,5.63
2022-10-01T09:43:08.516Z,5.60
2022-10-01T09:45:37.079Z,6.07
2022-10-01T09:48:18.897Z,6.70
2022-10-01T09:50:55.295Z,6.45
2022-10-01T09:53:29.557Z,5.20
2022-10-01T09:56:02.372Z,5.38
2022-10-01T09:58:30.153Z,5.40
2022-10-01T10:00:57.362Z,5.65
2022-10-01T10:03:32.027Z,9.63
2022-10-01T10:06:02.079Z,6.45
2022-10-01T10:08:36.729Z,6.90
2022-10-01T10:11:08.249Z,6.75
2022-10-01T10:13:49.825Z,5.90
2022-10-01T10:16:29.084Z,6.82
2022-10-01T10:19:26.746Z,8.73
2022-10-01T10:21:57.573Z,5.93
2022-10-01T10:26:58.484Z,5.70
2022-10-01T10:29:30.998Z,5.80
2022-10-01T10:32:02.398Z,4.93
2022-10-01T10:34:39.037Z,5.25
2022-10-01T10:37:16.855Z,5.00
2022-10-01T10:39:50.045Z,5.22
2022-10-01T10:42:18.772Z,5.60
2022-10-01T10:44:51.204Z,7.03
2022-10-01T10:59:20.536Z,7.32
2022-10-01T11:04:38.276Z,18.23
2022-10-01T11:07:05.678Z,7.45
2022-10-01T11:09:55.505Z,7.45
2022-10-01T11:12:29.778Z,7.07
2022-10-01T11:15:43.245Z,7.28
2022-10-01T11:18:48.505Z,6.20
2022-10-01T11:21:33.770Z,5.53
2022-10-01T11:24:22.321Z,6.32
2022-10-01T11:26:58.268Z,5.97
2022-10-01T11:30:03.149Z,7.70
2022-10-01T11:32:48.599Z,5.88
2022-10-01T11:35:37.233Z,6.80
2022-10-01T11:38:13.323Z,6.88
2022-10-01T11:40:41.989Z,6.95
2022-10-01T11:43:39.164Z,7.00
2022-10-01T11:46:14.091Z,8.25
2022-10-01T11:48:44.436Z,7.93
2022-10-01T11:51:15.043Z,7.28
2022-10-01T11:53:47.040Z,9.02
2022-10-01T11:56:39.863Z,6.70
2022-10-01T11:59:29.519Z,7.13
2022-10-01T12:02:40.047Z,5.75
2022-10-01T12:05:17.030Z,9.15
2022-10-01T12:08:19.538Z,11.57
2022-10-01T12:11:06.143Z,7.20
2022-10-01T12:13:41.135Z,11.43
2022-10-01T12:16:52.015Z,11.85
2022-10-01T12:19:29.862Z,10.52
2022-10-01T12:22:03.808Z,11.00
2022-10-01T12:24:36.590Z,11.00
2022-10-01T12:27:24.891Z,10.95
2022-10-01T12:30:10.725Z,11.40
2022-10-01T12:32:59.141Z,10.15
2022-10-01T12:36:06.640Z,9.77
2022-10-01T12:38:39.630Z,10.07
2022-10-01T12:41:30.638Z,14.00
2022-10-01T12:44:17.962Z,7.80
2022-10-01T12:47:12.815Z,6.82
2022-10-01T12:49:53.956Z,6.95
2022-10-01T12:52:34.346Z,8.07
2022-10-01T12:55:39.870Z,10.00
2022-10-01T12:58:19.602Z,7.63
2022-10-01T13:00:56.386Z,8.93
2022-10-01T13:03:39.118Z,7.88
2022-10-01T13:06:11.679Z,6.90
2022-10-01T13:09:00.155Z,11.38
2022-10-01T13:11:45.733Z,8.93
2022-10-01T13:14:16.769Z,9.80
2022-10-01T13:17:08.780Z,7.20
2022-10-01T13:19:53.427Z,9.15
2022-10-01T13:22:46.053Z,11.30
2022-10-01T13:25:30.764Z,8.23
2022-10-01T13:28:06.112Z,11.13
2022-10-01T13:30:51.543Z,11.27
2022-10-01T13:33:24.681Z,10.10
2022-10-01T13:36:01.139Z,10.50
2022-10-01T13:38:39.426Z,8.88
2022-10-01T13:41:31.037Z,8.35
2022-10-01T13:44:11.565Z,7.60
2022-10-01T13:47:02.191Z,11.77
2022-10-01T13:49:34.066Z,10.18
2022-10-01T13:52:03.949Z,9.52
2022-10-01T13:54:36.778Z,11.97
2022-10-01T13:57:25.963Z,6.75
2022-10-01T14:00:19.150Z,10.35
2022-10-01T14:03:22.393Z,18.70
2022-10-01T14:05:56.731Z,6.55
2022-10-01T14:08:32.298Z,6.50
2022-10-01T14:11:26.766Z,8.68
2022-10-01T14:14:13.164Z,7.40
2022-10-01T14:16:45.541Z,7.72
2022-10-01T14:19:21.077Z,7.90
2022-10-01T14:21:59.965Z,9.43
2022-10-01T14:24:51.842Z,7.82
2022-10-01T14:27:23.409Z,6.65
2022-10-01T14:29:56.092Z,6.72
2022-10-01T14:33:03.674Z,7.13
2022-10-01T14:35:45.461Z,6.05
2022-10-01T14:38:18.354Z,6.20
2022-10-01T14:40:48.154Z,6.05
2022-10-01T14:43:27.151Z,6.43
2022-10-01T14:46:03.038Z,6.57
2022-10-01T14:48:35.172Z,7.90
2022-10-01T14:51:07.654Z,8.90
2022-10-01T14:53:37.237Z,6.40
2022-10-01T14:56:11.387Z,8.20
2022-10-01T14:58:44.402Z,6.80
2022-10-01T15:01:22.166Z,9.48
2022-10-01T15:03:50.225Z,6.03
2022-10-01T15:06:23.808Z,7.28
2022-10-01T15:08:53.270Z,7.60
2022-10-01T15:11:26.058Z,9.70
2022-10-01T15:14:02.368Z,6.80
2022-10-01T15:16:30.040Z,8.32
2022-10-01T15:19:03.912Z,8.13
2022-10-01T15:21:33.599Z,6.38
2022-10-01T15:24:04.165Z,6.22
2022-10-01T15:26:32.777Z,7.70
2022-10-01T15:29:12.989Z,6.15
2022-10-01T15:31:40.904Z,6.10
2022-10-01T15:34:12.705Z,7.13
2022-10-01T15:36:40.958Z,5.75
2022-10-01T15:39:35.560Z,7.60
2022-10-01T15:42:09.545Z,6.80
2022-10-01T15:44:47.952Z,7.78
2022-10-01T15:47:25.028Z,7.00
2022-10-01T15:50:18.122Z,8.45
2022-10-01T15:52:49.669Z,6.50
2022-10-01T15:55:39.843Z,8.23
2022-10-01T15:58:15.934Z,8.00
2022-10-01T16:01:01.838Z,7.13
2022-10-01T16:03:55.658Z,8.45
2022-10-01T16:06:27.021Z,8.77
2022-10-01T16:09:11.928Z,7.93
2022-10-01T16:12:00.045Z,6.95
2022-10-01T16:14:29.832Z,7.05
2022-10-01T16:17:32.741Z,7.50
2022-10-01T16:20:01.921Z,6.57
2022-10-01T16:22:32.184Z,9.65
2022-10-01T16:25:23.677Z,6.05
2022-10-01T16:27:56.024Z,7.30
2022-10-01T16:30:28.170Z,7.38
2022-10-01T16:32:56.033Z,6.78
2022-10-01T16:35:35.671Z,7.70
2022-10-01T16:38:06.586Z,8.65
2022-10-01T16:43:02.613Z,7.38
2022-10-01T16:45:36.817Z,6.55
2022-10-01T16:48:13.040Z,7.65
2022-10-01T16:50:40.073Z,6.88
2022-10-01T16:53:13.795Z,7.25
2022-10-01T16:55:40.838Z,7.70
2022-10-01T16:58:08.016Z,6.80
2022-10-01T17:00:37.150Z,8.50
2022-10-01T17:03:06.668Z,8.07
2022-10-01T17:05:36.134Z,9.23
2022-10-01T17:08:10.902Z,6.57
2022-10-01T17:10:48.037Z,6.30
2022-10-01T17:13:15.677Z,8.50
2022-10-01T17:15:43.436Z,8.48
2022-10-01T17:18:10.252Z,7.43
2022-10-01T17:20:39.961Z,6.93
2022-10-01T17:23:07.329Z,7.32
2022-10-01T17:25:36.784Z,8.35
2022-10-01T17:28:06.716Z,10.40
2022-10-01T17:30:33.890Z,7.25
2022-10-01T17:33:01.562Z,8.82
2022-10-01T17:35:29.713Z,7.53
2022-10-01T17:37:58.304Z,12.85
2022-10-01T17:40:25.514Z,11.50
2022-10-01T17:42:52.305Z,11.48
2022-10-01T17:45:19.169Z,10.65
2022-10-01T17:47:47.566Z,7.55
2022-10-01T17:50:16.270Z,11.57
2022-10-01T17:52:43.855Z,10.07
2022-10-01T17:55:12.218Z,8.52
2022-10-01T17:57:39.160Z,8.90
2022-10-01T18:00:06.852Z,8.50
2022-10-01T18:02:42.512Z,8.32
2022-10-01T18:05:12.452Z,10.55
2022-10-01T18:07:40.015Z,14.90
2022-10-01T18:10:09.630Z,18.75
2022-10-01T18:12:36.467Z,17.35
2022-10-01T18:15:03.684Z,9.57
2022-10-01T18:17:32.565Z,8.90
2022-10-01T18:19:59.707Z,11.20
2022-10-01T18:22:27.412Z,9.13
2022-10-01T18:24:54.390Z,9.75
2022-10-01T18:27:21.271Z,13.27
2022-10-01T18:29:47.995Z,12.18
2022-10-01T18:32:26.759Z,8.40
2022-10-01T18:35:02.846Z,11.35
2022-10-01T18:37:40.122Z,9.70
2022-10-01T18:40:13.392Z,13.00
2022-10-01T18:43:22.131Z,12.07
2022-10-01T18:46:09.836Z,13.20
2022-10-01T18:49:27.289Z,9.90
2022-10-01T18:52:15.773Z,11.65
2022-10-01T18:55:08.754Z,13.20
2022-10-01T18:57:40.959Z,8.43
2022-10-01T19:00:23.143Z,10.90
2022-10-01T19:03:12.665Z,13.43
2022-10-01T19:05:57.148Z,13.32
2022-10-01T19:08:49.398Z,11.77
2022-10-01T19:11:30.888Z,9.50
2022-10-01T19:14:22.303Z,14.00
2022-10-01T19:17:06.050Z,12.60
2022-10-01T19:19:54.359Z,10.20
2022-10-01T19:22:39.340Z,10.35
2022-10-01T19:25:22.133Z,10.48
2022-10-01T19:28:01.012Z,12.82
2022-10-01T19:31:02.428Z,10.88
2022-10-01T19:33:32.195Z,13.93
2022-10-01T19:36:00.472Z,13.70
2022-10-01T19:38:50.095Z,16.15
2022-10-01T19:41:22.858Z,12.02
2022-10-01T19:43:59.827Z,9.35
2022-10-01T19:46:40.454Z,13.95
2022-10-01T19:51:39.922Z,13.93
2022-10-01T19:54:16.860Z,16.92
2022-10-01T19:56:46.853Z,14.52
2022-10-01T19:59:16.775Z,10.27
2022-10-01T20:02:00.210Z,16.75
2022-10-01T20:04:59.282Z,13.32
2022-10-01T20:07:39.663Z,13.93
2022-10-01T20:10:30.133Z,14.95
2022-10-01T20:13:14.749Z,14.73
2022-10-01T20:15:56.704Z,14.40
2022-10-01T20:18:49.205Z,17.80
2022-10-01T20:21:39.551Z,22.73
2022-10-01T20:24:28.802Z,16.23
2022-10-01T20:27:16.959Z,14.20
2022-10-01T20:29:49.885Z,18.98
2022-10-01T20:32:29.785Z,9.70
2022-10-01T20:35:00.528Z,10.02
2022-10-01T20:37:43.853Z,13.55
2022-10-01T20:41:09.209Z,11.45
2022-10-01T20:43:49.341Z,11.95
2022-10-01T20:46:43.278Z,14.93
2022-10-01T20:49:27.934Z,9.07
2022-10-01T20:52:00.550Z,10.38
2022-10-01T20:54:43.797Z,14.25
2022-10-01T20:57:21.340Z,9.60
2022-10-01T20:59:54.363Z,15.00
2022-10-01T21:02:33.584Z,12.57
2022-10-01T21:05:26.100Z,16.50
2022-10-01T21:07:58.006Z,13.05
2022-10-01T21:10:36.527Z,15.18
2022-10-01T21:13:12.294Z,16.05
2022-10-01T21:15:59.456Z,12.90
2022-10-01T21:18:56.543Z,16.02
2022-10-01T21:21:35.171Z,17.52
2022-10-01T21:24:19.812Z,19.67
2022-10-01T21:26:52.425Z,15.13
2022-10-01T21:30:12.454Z,11.15
2022-10-01T21:33:02.050Z,10.57
2022-10-01T21:35:49.309Z,12.87
2022-10-01T21:38:46.952Z,14.45
2022-10-01T21:41:53.612Z,12.80
2022-10-01T21:44:36.494Z,13.80
2022-10-01T21:47:23.780Z,11.77
2022-10-01T21:49:56.609Z,12.27
2022-10-01T21:52:48.469Z,10.30
2022-10-01T21:56:03.431Z,10.18
2022-10-01T21:58:58.621Z,8.73
2022-10-01T22:01:43.786Z,10.05
2022-10-01T22:04:23.341Z,15.85
2022-10-01T22:07:20.518Z,15.63
2022-10-01T22:10:09.060Z,13.45
2022-10-01T22:12:40.423Z,11.80
2022-10-01T22:15:23.626Z,14.63
2022-10-01T22:17:53.662Z,9.70
2022-10-01T22:20:24.368Z,12.50
2022-10-01T22:22:54.786Z,10.50
2022-10-01T22:25:21.525Z,12.07
2022-10-01T22:27:57.818Z,11.63
2022-10-01T22:30:28.798Z,12.27
2022-10-01T22:35:26.818Z,13.95
2022-10-01T22:38:02.851Z,12.63
2022-10-01T22:40:35.605Z,10.68
2022-10-01T22:43:09.364Z,13.15
2022-10-01T22:46:13.378Z,12.63
2022-10-01T22:48:40.069Z,13.43
2022-10-01T22:51:18.972Z,13.07
2022-10-01T22:54:07.053Z,12.45
2022-10-01T22:57:04.677Z,9.18
2022-10-01T23:00:04.159Z,8.52
2022-10-01T23:02:38.838Z,12.57
2022-10-01T23:05:19.475Z,12.82
2022-10-01T23:07:54.515Z,11.82
2022-10-01T23:10:30.549Z,10.27
2022-10-01T23:13:09.012Z,12.38
2022-10-01T23:15:51.163Z,11.68
2022-10-01T23:18:40.786Z,14.57
2022-10-01T23:21:18.632Z,14.23
2022-10-01T23:24:07.086Z,11.80
2022-10-01T23:27:10.907Z,11.88
2022-10-01T23:29:53.029Z,21.67
2022-10-01T23:32:26.836Z,11.50
2022-10-01T23:35:16.635Z,17.10
2022-10-01T23:37:50.249Z,16.60
2022-10-01T23:40:23.817Z,16.50
2022-10-01T23:43:06.536Z,14.55
2022-10-01T23:45:40.042Z,12.65
2022-10-01T23:48:12.847Z,16.45
2022-10-01T23:50:53.889Z,19.38
2022-10-01T23:53:26.271Z,19.15
2022-10-01T23:56:21.211Z,14.75
2022-10-01T23:58:57.424Z,11.38
